Terminal Aerodrome Forecast
Issued by NWS

Home | Current Version | Previous Version | Text Only | Print | Product List | Glossary On
Versions: 1 2 3 4 5 6 7 8 9 10 11 12 13 14
000
FTAK31 PAJN 221700
TAFASI
TAF
PASI 221730Z 2218/2318 23012KT P6SM -SHRA SCT025 BKN035 OVC050
     FM222100 16008KT P6SM VCSH SCT035 OVC050
     FM230000 09008KT P6SM SCT035 BKN050
     FM230600 08010KT P6SM SCT050 BKN100
     FM231400 08012KT P6SM VCSH SCT035 OVC060=

USA.gov is the U.S. government's official web portal to all federal, state and local government web resources and services.